Time,TemperatureF,DewpointF,PressureIn,WindDirection,WindDirectionDegrees,WindSpeedMPH,WindSpeedGustMPH,Humidity,HourlyPrecipIn,Conditions,Clouds,dailyrainin,SoftwareType,DateUTC
2013-03-18 00:00:00,62.4,12.5,29.62,SW,225,7.0,17.0,14,0.00,CLR,,0.00,WeatherDisplay:10.37,2013-03-18 05:00:00,
2013-03-18 00:30:00,61.8,12.0,29.63,WSW,237,6.0,21.0,14,0.00,CLR,,0.00,WeatherDisplay:10.37,2013-03-18 05:30:00,
2013-03-18 01:00:00,60.9,12.9,29.64,West,280,6.0,16.0,15,0.00,CLR,,0.00,WeatherDisplay:10.37,2013-03-18 06:00:00,
2013-03-18 01:30:00,60.1,12.2,29.64,WSW,256,9.0,18.0,15,0.00,CLR,,0.00,WeatherDisplay:10.37,2013-03-18 06:30:00,
2013-03-18 02:00:00,59.6,11.8,29.65,SW,218,5.0,20.0,15,0.00,CLR,,0.00,WeatherDisplay:10.37,2013-03-18 07:00:00,
2013-03-18 02:30:00,59.3,13.1,29.64,WSW,247,5.0,20.0,16,0.00,CLR,,0.00,WeatherDisplay:10.37,2013-03-18 07:30:00,
2013-03-18 03:00:00,59.3,11.6,29.63,WSW,250,7.0,21.0,15,0.00,CLR,,0.00,WeatherDisplay:10.37,2013-03-18 08:00:00,
2013-03-18 03:30:00,59.2,11.5,29.63,WSW,239,8.0,25.0,15,0.00,CLR,,0.00,WeatherDisplay:10.37,2013-03-18 08:30:00,
2013-03-18 04:00:00,58.6,12.5,29.63,WSW,252,10.0,30.0,16,0.00,CLR,,0.00,WeatherDisplay:10.37,2013-03-18 09:00:00,
2013-03-18 04:30:00,57.8,11.8,29.66,West,265,8.0,30.0,16,0.00,CLR,,0.00,WeatherDisplay:10.37,2013-03-18 09:30:00,
2013-03-18 05:00:00,57.0,12.5,29.67,SW,224,10.0,25.0,17,0.00,CLR,,0.00,WeatherDisplay:10.37,2013-03-18 10:00:00,
2013-03-18 05:30:00,56.6,13.5,29.67,WSW,244,12.0,20.0,18,0.00,CLR,,0.00,WeatherDisplay:10.37,2013-03-18 10:30:00,
2013-03-18 06:00:00,55.4,13.8,29.68,SW,225,7.0,18.0,19,0.00,CLR,,0.00,WeatherDisplay:10.37,2013-03-18 11:00:00,
2013-03-18 06:30:00,55.1,13.5,29.71,SW,223,8.0,20.0,19,0.00,CLR,,0.00,WeatherDisplay:10.37,2013-03-18 11:30:00,
2013-03-18 07:00:00,55.6,15.1,29.72,WSW,238,9.0,20.0,20,0.00,CLR,,0.00,WeatherDisplay:10.37,2013-03-18 12:00:00,
2013-03-18 07:30:00,54.8,14.5,29.74,SW,214,6.0,20.0,20,0.00,CLR,,0.00,WeatherDisplay:10.37,2013-03-18 12:30:00,
2013-03-18 07:59:00,53.8,14.7,29.78,SSW,199,7.0,20.0,21,0.00,CLR,,0.00,WeatherDisplay:10.37,2013-03-18 12:59:00,
2013-03-18 08:29:00,53.9,14.8,29.80,West,280,0.0,12.0,21,0.00,CLR,,0.00,WeatherDisplay:10.37,2013-03-18 13:29:00,
2013-03-18 08:59:00,55.9,14.2,29.81,WSW,243,5.0,13.0,19,0.00,CLR,,0.00,WeatherDisplay:10.37,2013-03-18 13:59:00,
2013-03-18 09:29:00,57.5,14.3,29.80,West,260,5.0,14.0,18,0.00,CLR,,0.00,WeatherDisplay:10.37,2013-03-18 14:29:00,
2013-03-18 09:59:00,58.9,14.1,29.81,SW,217,1.0,16.0,17,0.00,CLR,,0.00,WeatherDisplay:10.37,2013-03-18 14:59:00,
2013-03-18 10:29:00,59.9,14.9,29.81,WSW,256,6.0,20.0,17,0.00,CLR,,0.00,WeatherDisplay:10.37,2013-03-18 15:29:00,
2013-03-18 10:59:00,61.3,14.7,29.80,SW,228,8.0,20.0,16,0.00,CLR,,0.00,WeatherDisplay:10.37,2013-03-18 15:59:00,
2013-03-18 11:29:00,62.3,15.4,29.80,WSW,251,3.0,20.0,16,0.00,CLR,,0.00,WeatherDisplay:10.37,2013-03-18 16:29:00,
2013-03-18 12:00:00,63.5,16.5,29.80,WSW,251,8.0,16.0,16,0.00,CLR,,0.00,WeatherDisplay:10.37,2013-03-18 17:00:00,
2013-03-18 12:30:00,63.7,15.1,29.81,WNW,289,5.0,18.0,15,0.00,CLR,,0.00,WeatherDisplay:10.37,2013-03-18 17:30:00,
2013-03-18 13:00:00,64.7,15.9,29.79,SW,236,10.0,16.0,15,0.00,CLR,,0.00,WeatherDisplay:10.37,2013-03-18 18:00:00,
2013-03-18 13:30:00,63.1,17.5,29.80,West,273,5.0,16.0,17,0.00,CLR,,0.00,WeatherDisplay:10.37,2013-03-18 18:30:00,
2013-03-18 14:00:00,66.3,17.2,29.76,WSW,245,6.0,20.0,15,0.00,CLR,,0.00,WeatherDisplay:10.37,2013-03-18 19:00:00,
2013-03-18 14:30:00,65.0,11.1,29.77,WSW,249,2.0,14.0,12,0.00,CLR,,0.00,WeatherDisplay:10.37,2013-03-18 19:30:00,
2013-03-18 15:00:00,66.4,15.7,29.76,WNW,286,6.0,18.0,14,0.00,CLR,,0.00,WeatherDisplay:10.37,2013-03-18 20:00:00,
2013-03-18 15:30:00,64.2,14.0,29.77,WNW,299,5.0,21.0,14,0.00,CLR,,0.00,WeatherDisplay:10.37,2013-03-18 20:30:00,
2013-03-18 16:00:00,65.2,11.2,29.75,WNW,290,2.0,12.0,12,0.00,CLR,,0.00,WeatherDisplay:10.37,2013-03-18 21:00:00,
2013-03-18 16:30:00,66.8,14.3,29.74,NW,304,5.0,13.0,13,0.00,CLR,,0.00,WeatherDisplay:10.37,2013-03-18 21:30:00,
2013-03-18 17:00:00,65.5,13.3,29.75,SW,223,6.0,16.0,13,0.00,CLR,,0.00,WeatherDisplay:10.37,2013-03-18 22:00:00,
2013-03-18 17:30:00,67.1,16.3,29.74,WSW,252,3.0,18.0,14,0.00,CLR,,0.00,WeatherDisplay:10.37,2013-03-18 22:30:00,
2013-03-18 18:00:00,66.9,16.1,29.74,WSW,255,8.0,17.0,14,0.00,CLR,,0.00,WeatherDisplay:10.37,2013-03-18 23:00:00,
2013-03-18 18:30:00,65.9,15.3,29.76,SW,231,8.0,20.0,14,0.00,CLR,,0.00,WeatherDisplay:10.37,2013-03-18 23:30:00,
2013-03-18 19:00:00,64.7,15.9,29.76,SW,224,2.0,13.0,15,0.00,CLR,,0.00,WeatherDisplay:10.37,2013-03-19 00:00:00,
2013-03-18 19:30:00,62.9,14.5,29.79,SW,230,8.0,14.0,15,0.00,CLR,,0.00,WeatherDisplay:10.37,2013-03-19 00:30:00,
2013-03-18 20:00:00,61.3,13.2,29.79,SW,214,3.0,17.0,15,0.00,CLR,,0.00,WeatherDisplay:10.37,2013-03-19 01:00:00,
2013-03-18 20:30:00,58.5,12.4,29.80,South,181,1.0,8.0,16,0.00,CLR,,0.00,WeatherDisplay:10.37,2013-03-19 01:30:00,
2013-03-18 21:00:00,50.4,10.8,29.86,South,181,0.0,3.0,20,0.00,CLR,,0.00,WeatherDisplay:10.37,2013-03-19 02:00:00,
2013-03-18 21:30:00,52.0,10.9,29.83,SW,231,3.0,10.0,19,0.00,CLR,,0.00,WeatherDisplay:10.37,2013-03-19 02:30:00,
2013-03-18 22:00:00,57.9,11.9,29.80,WSW,239,1.0,14.0,16,0.00,CLR,,0.00,WeatherDisplay:10.37,2013-03-19 03:00:00,
2013-03-18 22:30:00,51.9,13.1,29.85,WSW,253,0.0,5.0,21,0.00,CLR,,0.00,WeatherDisplay:10.37,2013-03-19 03:30:00,
2013-03-18 23:00:00,43.2,12.2,29.90,WSW,253,0.0,5.0,28,0.00,CLR,,0.00,WeatherDisplay:10.37,2013-03-19 04:00:00,
2013-03-18 23:30:00,39.1,11.0,29.92,WSW,253,0.0,2.0,31,0.00,CLR,,0.00,WeatherDisplay:10.37,2013-03-19 04:30:00,